sensor_id;sensor_type;location;lat;lon;timestamp;P1;durP1;ratioP1;P2;durP2;ratioP2
59876;SDS011;74472;51.140;17.184;2023-12-20T00:01:32;10.32;;;6.38;;
59876;SDS011;74472;51.140;17.184;2023-12-20T00:03:57;8.38;;;6.10;;
59876;SDS011;74472;51.140;17.184;2023-12-20T00:06:23;8.55;;;6.60;;
59876;SDS011;74472;51.140;17.184;2023-12-20T00:08:49;10.32;;;6.47;;
59876;SDS011;74472;51.140;17.184;2023-12-20T00:11:14;8.02;;;6.82;;
59876;SDS011;74472;51.140;17.184;2023-12-20T00:13:39;11.00;;;7.32;;
59876;SDS011;74472;51.140;17.184;2023-12-20T00:16:06;10.48;;;6.22;;
59876;SDS011;74472;51.140;17.184;2023-12-20T00:18:34;9.60;;;6.32;;
59876;SDS011;74472;51.140;17.184;2023-12-20T00:21:00;8.48;;;5.97;;
59876;SDS011;74472;51.140;17.184;2023-12-20T00:23:25;10.63;;;6.25;;
59876;SDS011;74472;51.140;17.184;2023-12-20T00:25:50;9.27;;;6.22;;
59876;SDS011;74472;51.140;17.184;2023-12-20T00:28:16;7.55;;;6.10;;
59876;SDS011;74472;51.140;17.184;2023-12-20T00:30:41;8.65;;;6.25;;
59876;SDS011;74472;51.140;17.184;2023-12-20T00:33:06;10.02;;;6.70;;
59876;SDS011;74472;51.140;17.184;2023-12-20T00:35:32;11.10;;;6.05;;
59876;SDS011;74472;51.140;17.184;2023-12-20T00:37:58;7.68;;;5.60;;
59876;SDS011;74472;51.140;17.184;2023-12-20T00:40:23;8.70;;;7.22;;
59876;SDS011;74472;51.140;17.184;2023-12-20T00:42:49;9.10;;;6.20;;
59876;SDS011;74472;51.140;17.184;2023-12-20T00:45:14;9.48;;;5.45;;
59876;SDS011;74472;51.140;17.184;2023-12-20T00:47:40;8.32;;;5.07;;
59876;SDS011;74472;51.140;17.184;2023-12-20T00:50:05;8.85;;;6.10;;
59876;SDS011;74472;51.140;17.184;2023-12-20T00:52:31;8.07;;;5.35;;
59876;SDS011;74472;51.140;17.184;2023-12-20T00:54:56;9.63;;;6.22;;
59876;SDS011;74472;51.140;17.184;2023-12-20T00:57:22;7.35;;;5.53;;
59876;SDS011;74472;51.140;17.184;2023-12-20T00:59:47;7.70;;;5.38;;
59876;SDS011;74472;51.140;17.184;2023-12-20T01:02:12;9.77;;;6.47;;
59876;SDS011;74472;51.140;17.184;2023-12-20T01:04:38;9.00;;;6.47;;
59876;SDS011;74472;51.140;17.184;2023-12-20T01:07:04;11.63;;;7.80;;
59876;SDS011;74472;51.140;17.184;2023-12-20T01:09:29;13.90;;;10.02;;
59876;SDS011;74472;51.140;17.184;2023-12-20T01:11:54;11.48;;;8.13;;
59876;SDS011;74472;51.140;17.184;2023-12-20T01:14:19;12.13;;;8.10;;
59876;SDS011;74472;51.140;17.184;2023-12-20T01:16:45;10.52;;;6.35;;
59876;SDS011;74472;51.140;17.184;2023-12-20T01:19:10;8.93;;;6.40;;
59876;SDS011;74472;51.140;17.184;2023-12-20T01:21:36;10.30;;;7.22;;
59876;SDS011;74472;51.140;17.184;2023-12-20T01:24:01;9.48;;;6.60;;
59876;SDS011;74472;51.140;17.184;2023-12-20T01:26:26;11.27;;;7.35;;
59876;SDS011;74472;51.140;17.184;2023-12-20T01:28:52;15.13;;;7.25;;
59876;SDS011;74472;51.140;17.184;2023-12-20T01:31:18;8.48;;;5.78;;
59876;SDS011;74472;51.140;17.184;2023-12-20T01:33:43;9.63;;;5.88;;
59876;SDS011;74472;51.140;17.184;2023-12-20T01:36:09;9.02;;;5.50;;
59876;SDS011;74472;51.140;17.184;2023-12-20T01:38:34;9.23;;;5.75;;
59876;SDS011;74472;51.140;17.184;2023-12-20T01:40:59;12.60;;;7.63;;
59876;SDS011;74472;51.140;17.184;2023-12-20T01:43:25;9.02;;;5.80;;
59876;SDS011;74472;51.140;17.184;2023-12-20T01:45:50;6.88;;;4.90;;
59876;SDS011;74472;51.140;17.184;2023-12-20T01:48:17;6.07;;;4.40;;
59876;SDS011;74472;51.140;17.184;2023-12-20T01:50:44;7.43;;;4.65;;
59876;SDS011;74472;51.140;17.184;2023-12-20T01:53:10;7.28;;;4.80;;
59876;SDS011;74472;51.140;17.184;2023-12-20T01:55:38;8.40;;;6.43;;
59876;SDS011;74472;51.140;17.184;2023-12-20T01:58:05;8.98;;;5.57;;
59876;SDS011;74472;51.140;17.184;2023-12-20T02:00:31;7.07;;;4.95;;
59876;SDS011;74472;51.140;17.184;2023-12-20T02:02:59;9.30;;;6.07;;
59876;SDS011;74472;51.140;17.184;2023-12-20T02:05:26;7.30;;;5.40;;
59876;SDS011;74472;51.140;17.184;2023-12-20T02:07:53;10.55;;;5.20;;
59876;SDS011;74472;51.140;17.184;2023-12-20T02:10:18;7.43;;;4.65;;
59876;SDS011;74472;51.140;17.184;2023-12-20T02:12:44;7.20;;;4.50;;
59876;SDS011;74472;51.140;17.184;2023-12-20T02:15:09;6.78;;;4.80;;
59876;SDS011;74472;51.140;17.184;2023-12-20T02:17:35;7.05;;;4.32;;
59876;SDS011;74472;51.140;17.184;2023-12-20T02:20:01;4.95;;;4.40;;
59876;SDS011;74472;51.140;17.184;2023-12-20T02:22:27;6.97;;;4.20;;
59876;SDS011;74472;51.140;17.184;2023-12-20T02:24:52;4.65;;;3.40;;
59876;SDS011;74472;51.140;17.184;2023-12-20T02:27:18;6.18;;;3.70;;
59876;SDS011;74472;51.140;17.184;2023-12-20T02:29:44;5.18;;;4.45;;
59876;SDS011;74472;51.140;17.184;2023-12-20T02:32:12;4.68;;;3.30;;
59876;SDS011;74472;51.140;17.184;2023-12-20T02:34:37;4.72;;;3.40;;
59876;SDS011;74472;51.140;17.184;2023-12-20T02:37:03;4.60;;;3.45;;
59876;SDS011;74472;51.140;17.184;2023-12-20T02:39:28;4.63;;;2.80;;
59876;SDS011;74472;51.140;17.184;2023-12-20T02:41:53;3.40;;;2.42;;
59876;SDS011;74472;51.140;17.184;2023-12-20T02:44:19;3.05;;;2.40;;
59876;SDS011;74472;51.140;17.184;2023-12-20T02:46:44;4.28;;;2.70;;
59876;SDS011;74472;51.140;17.184;2023-12-20T02:49:09;3.47;;;1.90;;
59876;SDS011;74472;51.140;17.184;2023-12-20T02:51:35;4.10;;;2.53;;
59876;SDS011;74472;51.140;17.184;2023-12-20T02:54:03;4.90;;;2.65;;
59876;SDS011;74472;51.140;17.184;2023-12-20T02:56:28;4.20;;;2.55;;
59876;SDS011;74472;51.140;17.184;2023-12-20T02:58:53;5.38;;;2.67;;
59876;SDS011;74472;51.140;17.184;2023-12-20T03:01:18;4.35;;;2.67;;
59876;SDS011;74472;51.140;17.184;2023-12-20T03:03:44;3.28;;;2.30;;
59876;SDS011;74472;51.140;17.184;2023-12-20T03:06:10;4.68;;;2.78;;
59876;SDS011;74472;51.140;17.184;2023-12-20T03:08:35;5.18;;;2.85;;
59876;SDS011;74472;51.140;17.184;2023-12-20T03:11:00;3.17;;;2.28;;
59876;SDS011;74472;51.140;17.184;2023-12-20T03:13:25;5.00;;;2.72;;
59876;SDS011;74472;51.140;17.184;2023-12-20T03:15:51;3.75;;;2.10;;
59876;SDS011;74472;51.140;17.184;2023-12-20T03:18:16;5.57;;;3.08;;
59876;SDS011;74472;51.140;17.184;2023-12-20T03:20:43;3.95;;;2.17;;
59876;SDS011;74472;51.140;17.184;2023-12-20T03:23:08;3.58;;;2.40;;
59876;SDS011;74472;51.140;17.184;2023-12-20T03:25:33;4.78;;;2.85;;
59876;SDS011;74472;51.140;17.184;2023-12-20T03:27:59;4.25;;;2.60;;
59876;SDS011;74472;51.140;17.184;2023-12-20T03:30:26;6.10;;;3.30;;
59876;SDS011;74472;51.140;17.184;2023-12-20T03:32:51;6.40;;;3.13;;
59876;SDS011;74472;51.140;17.184;2023-12-20T03:35:17;5.05;;;2.65;;
59876;SDS011;74472;51.140;17.184;2023-12-20T03:37:42;3.00;;;2.17;;
59876;SDS011;74472;51.140;17.184;2023-12-20T03:40:07;3.20;;;1.98;;
59876;SDS011;74472;51.140;17.184;2023-12-20T03:42:33;4.38;;;2.15;;
59876;SDS011;74472;51.140;17.184;2023-12-20T03:44:58;5.10;;;2.95;;
59876;SDS011;74472;51.140;17.184;2023-12-20T03:47:23;4.47;;;2.47;;
59876;SDS011;74472;51.140;17.184;2023-12-20T03:49:49;4.65;;;2.15;;
59876;SDS011;74472;51.140;17.184;2023-12-20T03:52:14;4.85;;;2.58;;
59876;SDS011;74472;51.140;17.184;2023-12-20T03:54:40;3.47;;;1.83;;
59876;SDS011;74472;51.140;17.184;2023-12-20T03:57:07;1.85;;;1.13;;
59876;SDS011;74472;51.140;17.184;2023-12-20T03:59:36;2.55;;;1.23;;
59876;SDS011;74472;51.140;17.184;2023-12-20T04:02:02;2.30;;;2.08;;
59876;SDS011;74472;51.140;17.184;2023-12-20T04:04:28;2.20;;;1.20;;
59876;SDS011;74472;51.140;17.184;2023-12-20T04:06:53;1.85;;;1.10;;
59876;SDS011;74472;51.140;17.184;2023-12-20T04:09:18;2.92;;;1.70;;
59876;SDS011;74472;51.140;17.184;2023-12-20T04:11:44;2.90;;;1.25;;
59876;SDS011;74472;51.140;17.184;2023-12-20T04:14:09;2.35;;;1.15;;
59876;SDS011;74472;51.140;17.184;2023-12-20T04:16:35;1.10;;;0.82;;
59876;SDS011;74472;51.140;17.184;2023-12-20T04:19:00;1.77;;;1.02;;
59876;SDS011;74472;51.140;17.184;2023-12-20T04:21:26;1.90;;;0.85;;
59876;SDS011;74472;51.140;17.184;2023-12-20T04:23:51;3.28;;;1.20;;
59876;SDS011;74472;51.140;17.184;2023-12-20T04:26:16;1.92;;;1.25;;
59876;SDS011;74472;51.140;17.184;2023-12-20T04:28:42;1.30;;;1.10;;
59876;SDS011;74472;51.140;17.184;2023-12-20T04:31:07;1.75;;;0.90;;
59876;SDS011;74472;51.140;17.184;2023-12-20T04:33:32;3.88;;;0.88;;
59876;SDS011;74472;51.140;17.184;2023-12-20T04:35:58;1.38;;;0.65;;
59876;SDS011;74472;51.140;17.184;2023-12-20T04:38:23;1.95;;;1.20;;
59876;SDS011;74472;51.140;17.184;2023-12-20T04:40:48;1.17;;;0.98;;
59876;SDS011;74472;51.140;17.184;2023-12-20T04:43:14;1.20;;;0.90;;
59876;SDS011;74472;51.140;17.184;2023-12-20T04:45:39;1.92;;;1.42;;
59876;SDS011;74472;51.140;17.184;2023-12-20T04:48:05;3.00;;;1.63;;
59876;SDS011;74472;51.140;17.184;2023-12-20T04:50:30;4.38;;;2.22;;
59876;SDS011;74472;51.140;17.184;2023-12-20T04:52:55;2.25;;;1.15;;
59876;SDS011;74472;51.140;17.184;2023-12-20T04:55:21;4.07;;;1.60;;
59876;SDS011;74472;51.140;17.184;2023-12-20T04:57:46;4.55;;;1.98;;
59876;SDS011;74472;51.140;17.184;2023-12-20T05:00:11;2.05;;;1.10;;
59876;SDS011;74472;51.140;17.184;2023-12-20T05:02:37;1.73;;;0.95;;
59876;SDS011;74472;51.140;17.184;2023-12-20T05:05:03;5.55;;;3.15;;
59876;SDS011;74472;51.140;17.184;2023-12-20T05:07:28;3.33;;;1.48;;
59876;SDS011;74472;51.140;17.184;2023-12-20T05:09:53;2.22;;;1.25;;
59876;SDS011;74472;51.140;17.184;2023-12-20T05:12:19;1.77;;;1.38;;
59876;SDS011;74472;51.140;17.184;2023-12-20T05:14:44;0.80;;;0.77;;
59876;SDS011;74472;51.140;17.184;2023-12-20T05:17:10;2.13;;;1.60;;
59876;SDS011;74472;51.140;17.184;2023-12-20T05:19:36;1.02;;;0.90;;
59876;SDS011;74472;51.140;17.184;2023-12-20T05:22:01;1.77;;;0.70;;
59876;SDS011;74472;51.140;17.184;2023-12-20T05:24:27;2.88;;;1.05;;
59876;SDS011;74472;51.140;17.184;2023-12-20T05:26:52;1.23;;;0.95;;
59876;SDS011;74472;51.140;17.184;2023-12-20T05:29:18;1.85;;;0.90;;
59876;SDS011;74472;51.140;17.184;2023-12-20T05:31:43;0.95;;;0.65;;
59876;SDS011;74472;51.140;17.184;2023-12-20T05:34:08;1.95;;;1.20;;
59876;SDS011;74472;51.140;17.184;2023-12-20T05:36:33;1.85;;;1.13;;
59876;SDS011;74472;51.140;17.184;2023-12-20T05:38:59;1.92;;;1.08;;
59876;SDS011;74472;51.140;17.184;2023-12-20T05:41:24;1.70;;;1.10;;
59876;SDS011;74472;51.140;17.184;2023-12-20T05:43:49;2.67;;;1.33;;
59876;SDS011;74472;51.140;17.184;2023-12-20T05:46:15;2.47;;;1.50;;
59876;SDS011;74472;51.140;17.184;2023-12-20T05:48:40;1.38;;;0.90;;
59876;SDS011;74472;51.140;17.184;2023-12-20T05:51:05;1.67;;;0.85;;
59876;SDS011;74472;51.140;17.184;2023-12-20T05:53:30;1.77;;;1.15;;
59876;SDS011;74472;51.140;17.184;2023-12-20T05:55:56;1.77;;;0.90;;
59876;SDS011;74472;51.140;17.184;2023-12-20T05:58:21;2.22;;;1.35;;
59876;SDS011;74472;51.140;17.184;2023-12-20T06:00:46;1.92;;;1.30;;
59876;SDS011;74472;51.140;17.184;2023-12-20T06:03:13;2.08;;;1.80;;
59876;SDS011;74472;51.140;17.184;2023-12-20T06:05:39;2.10;;;1.17;;
59876;SDS011;74472;51.140;17.184;2023-12-20T06:08:04;1.60;;;1.17;;
59876;SDS011;74472;51.140;17.184;2023-12-20T06:10:30;1.75;;;1.42;;
59876;SDS011;74472;51.140;17.184;2023-12-20T06:12:55;1.98;;;1.52;;
59876;SDS011;74472;51.140;17.184;2023-12-20T06:15:21;2.05;;;1.58;;
59876;SDS011;74472;51.140;17.184;2023-12-20T06:17:46;3.03;;;1.55;;
59876;SDS011;74472;51.140;17.184;2023-12-20T06:20:12;6.07;;;1.92;;
59876;SDS011;74472;51.140;17.184;2023-12-20T06:22:38;3.03;;;2.72;;
59876;SDS011;74472;51.140;17.184;2023-12-20T06:25:03;1.48;;;1.38;;
59876;SDS011;74472;51.140;17.184;2023-12-20T06:27:29;2.72;;;1.98;;
59876;SDS011;74472;51.140;17.184;2023-12-20T06:29:57;2.42;;;1.83;;
59876;SDS011;74472;51.140;17.184;2023-12-20T06:32:22;3.20;;;2.15;;
59876;SDS011;74472;51.140;17.184;2023-12-20T06:34:48;3.53;;;2.20;;
59876;SDS011;74472;51.140;17.184;2023-12-20T06:37:14;2.42;;;1.27;;
59876;SDS011;74472;51.140;17.184;2023-12-20T06:39:40;3.50;;;2.13;;
59876;SDS011;74472;51.140;17.184;2023-12-20T06:42:05;2.05;;;1.80;;
59876;SDS011;74472;51.140;17.184;2023-12-20T06:44:31;2.92;;;1.77;;
59876;SDS011;74472;51.140;17.184;2023-12-20T06:46:56;4.10;;;1.48;;
59876;SDS011;74472;51.140;17.184;2023-12-20T06:49:22;3.35;;;2.40;;
59876;SDS011;74472;51.140;17.184;2023-12-20T06:51:47;3.42;;;1.95;;
59876;SDS011;74472;51.140;17.184;2023-12-20T06:54:18;3.13;;;2.00;;
59876;SDS011;74472;51.140;17.184;2023-12-20T06:59:16;1.90;;;1.30;;
59876;SDS011;74472;51.140;17.184;2023-12-20T07:01:41;4.57;;;2.20;;
59876;SDS011;74472;51.140;17.184;2023-12-20T07:04:07;1.45;;;0.98;;
59876;SDS011;74472;51.140;17.184;2023-12-20T07:06:32;3.45;;;1.70;;
59876;SDS011;74472;51.140;17.184;2023-12-20T07:08:57;3.17;;;1.48;;
59876;SDS011;74472;51.140;17.184;2023-12-20T07:11:22;1.85;;;1.30;;
59876;SDS011;74472;51.140;17.184;2023-12-20T07:13:48;2.50;;;1.00;;
59876;SDS011;74472;51.140;17.184;2023-12-20T07:16:14;4.63;;;1.83;;
59876;SDS011;74472;51.140;17.184;2023-12-20T07:18:39;2.78;;;1.75;;
59876;SDS011;74472;51.140;17.184;2023-12-20T07:21:05;4.25;;;2.00;;
59876;SDS011;74472;51.140;17.184;2023-12-20T07:23:30;5.22;;;1.83;;
59876;SDS011;74472;51.140;17.184;2023-12-20T07:25:55;3.33;;;1.25;;
59876;SDS011;74472;51.140;17.184;2023-12-20T07:28:21;5.20;;;1.80;;
59876;SDS011;74472;51.140;17.184;2023-12-20T07:30:46;2.95;;;1.80;;
59876;SDS011;74472;51.140;17.184;2023-12-20T07:33:11;3.38;;;1.58;;
59876;SDS011;74472;51.140;17.184;2023-12-20T07:35:37;3.65;;;1.90;;
59876;SDS011;74472;51.140;17.184;2023-12-20T07:38:03;4.32;;;2.17;;
59876;SDS011;74472;51.140;17.184;2023-12-20T07:40:28;2.50;;;1.40;;
59876;SDS011;74472;51.140;17.184;2023-12-20T07:42:54;2.10;;;1.00;;
59876;SDS011;74472;51.140;17.184;2023-12-20T07:45:19;3.33;;;1.33;;
59876;SDS011;74472;51.140;17.184;2023-12-20T07:47:44;3.25;;;1.63;;
59876;SDS011;74472;51.140;17.184;2023-12-20T07:50:10;5.45;;;1.45;;
59876;SDS011;74472;51.140;17.184;2023-12-20T07:52:35;1.88;;;1.17;;
59876;SDS011;74472;51.140;17.184;2023-12-20T07:55:00;3.55;;;1.35;;
59876;SDS011;74472;51.140;17.184;2023-12-20T07:57:28;3.95;;;1.15;;
59876;SDS011;74472;51.140;17.184;2023-12-20T07:59:54;3.17;;;1.02;;
59876;SDS011;74472;51.140;17.184;2023-12-20T08:02:19;2.97;;;0.93;;
59876;SDS011;74472;51.140;17.184;2023-12-20T08:04:44;3.70;;;1.10;;
59876;SDS011;74472;51.140;17.184;2023-12-20T08:07:10;2.60;;;1.30;;
59876;SDS011;74472;51.140;17.184;2023-12-20T08:09:35;2.33;;;0.77;;
59876;SDS011;74472;51.140;17.184;2023-12-20T08:12:01;1.80;;;1.05;;
59876;SDS011;74472;51.140;17.184;2023-12-20T08:14:27;1.48;;;0.90;;
59876;SDS011;74472;51.140;17.184;2023-12-20T08:16:52;3.10;;;1.10;;
59876;SDS011;74472;51.140;17.184;2023-12-20T08:19:17;4.53;;;1.27;;
59876;SDS011;74472;51.140;17.184;2023-12-20T08:21:43;5.03;;;1.55;;
59876;SDS011;74472;51.140;17.184;2023-12-20T08:24:08;2.67;;;0.98;;
59876;SDS011;74472;51.140;17.184;2023-12-20T08:26:33;2.13;;;1.20;;
59876;SDS011;74472;51.140;17.184;2023-12-20T08:28:58;4.68;;;1.70;;
59876;SDS011;74472;51.140;17.184;2023-12-20T08:31:24;3.05;;;1.33;;
59876;SDS011;74472;51.140;17.184;2023-12-20T08:33:49;3.55;;;1.10;;
59876;SDS011;74472;51.140;17.184;2023-12-20T08:36:15;2.83;;;1.60;;
59876;SDS011;74472;51.140;17.184;2023-12-20T08:38:42;2.80;;;1.10;;
59876;SDS011;74472;51.140;17.184;2023-12-20T08:41:08;4.07;;;1.20;;
59876;SDS011;74472;51.140;17.184;2023-12-20T08:43:34;1.88;;;0.70;;
59876;SDS011;74472;51.140;17.184;2023-12-20T08:45:59;2.05;;;1.02;;
59876;SDS011;74472;51.140;17.184;2023-12-20T08:48:24;3.85;;;1.13;;
59876;SDS011;74472;51.140;17.184;2023-12-20T08:50:50;3.40;;;1.40;;
59876;SDS011;74472;51.140;17.184;2023-12-20T08:53:17;1.95;;;1.20;;
59876;SDS011;74472;51.140;17.184;2023-12-20T08:55:46;3.58;;;1.85;;
59876;SDS011;74472;51.140;17.184;2023-12-20T08:58:12;6.07;;;3.53;;
59876;SDS011;74472;51.140;17.184;2023-12-20T09:00:38;3.42;;;2.35;;
59876;SDS011;74472;51.140;17.184;2023-12-20T09:03:03;3.08;;;2.17;;
59876;SDS011;74472;51.140;17.184;2023-12-20T09:05:29;4.53;;;2.67;;
59876;SDS011;74472;51.140;17.184;2023-12-20T09:07:55;2.60;;;1.70;;
59876;SDS011;74472;51.140;17.184;2023-12-20T09:10:20;2.45;;;1.95;;
59876;SDS011;74472;51.140;17.184;2023-12-20T09:12:50;3.30;;;1.60;;
59876;SDS011;74472;51.140;17.184;2023-12-20T09:15:16;3.22;;;1.92;;
59876;SDS011;74472;51.140;17.184;2023-12-20T09:17:42;2.83;;;2.10;;
59876;SDS011;74472;51.140;17.184;2023-12-20T09:20:08;3.28;;;2.17;;
59876;SDS011;74472;51.140;17.184;2023-12-20T09:22:34;2.13;;;1.30;;
59876;SDS011;74472;51.140;17.184;2023-12-20T09:25:00;3.75;;;2.30;;
59876;SDS011;74472;51.140;17.184;2023-12-20T09:27:26;4.90;;;2.85;;
59876;SDS011;74472;51.140;17.184;2023-12-20T09:29:52;3.03;;;1.80;;
59876;SDS011;74472;51.140;17.184;2023-12-20T09:32:18;1.98;;;1.20;;
59876;SDS011;74472;51.140;17.184;2023-12-20T09:34:45;4.25;;;2.70;;
59876;SDS011;74472;51.140;17.184;2023-12-20T09:37:10;3.78;;;2.15;;
59876;SDS011;74472;51.140;17.184;2023-12-20T09:39:35;3.80;;;2.60;;
59876;SDS011;74472;51.140;17.184;2023-12-20T09:42:02;8.05;;;3.83;;
59876;SDS011;74472;51.140;17.184;2023-12-20T09:44:28;3.67;;;2.20;;
59876;SDS011;74472;51.140;17.184;2023-12-20T09:46:55;2.05;;;1.35;;
59876;SDS011;74472;51.140;17.184;2023-12-20T09:49:21;2.55;;;1.70;;
59876;SDS011;74472;51.140;17.184;2023-12-20T09:51:47;4.80;;;3.25;;
59876;SDS011;74472;51.140;17.184;2023-12-20T09:54:14;3.17;;;2.17;;
59876;SDS011;74472;51.140;17.184;2023-12-20T09:56:41;6.28;;;4.18;;
59876;SDS011;74472;51.140;17.184;2023-12-20T09:59:07;11.07;;;8.25;;
59876;SDS011;74472;51.140;17.184;2023-12-20T10:01:32;3.72;;;2.50;;
59876;SDS011;74472;51.140;17.184;2023-12-20T10:03:59;9.35;;;8.40;;
59876;SDS011;74472;51.140;17.184;2023-12-20T10:06:25;5.43;;;3.15;;
59876;SDS011;74472;51.140;17.184;2023-12-20T10:08:50;3.95;;;1.95;;
59876;SDS011;74472;51.140;17.184;2023-12-20T10:11:16;10.73;;;4.95;;
59876;SDS011;74472;51.140;17.184;2023-12-20T10:13:42;5.88;;;3.63;;
59876;SDS011;74472;51.140;17.184;2023-12-20T10:16:08;7.40;;;3.67;;
59876;SDS011;74472;51.140;17.184;2023-12-20T10:18:33;44.75;;;18.02;;
59876;SDS011;74472;51.140;17.184;2023-12-20T10:20:59;44.35;;;17.38;;
59876;SDS011;74472;51.140;17.184;2023-12-20T10:23:25;29.75;;;14.82;;
59876;SDS011;74472;51.140;17.184;2023-12-20T10:26:00;17.13;;;8.00;;
59876;SDS011;74472;51.140;17.184;2023-12-20T10:28:25;15.18;;;7.90;;
59876;SDS011;74472;51.140;17.184;2023-12-20T10:30:52;18.60;;;8.20;;
59876;SDS011;74472;51.140;17.184;2023-12-20T10:33:23;10.70;;;5.45;;
59876;SDS011;74472;51.140;17.184;2023-12-20T10:35:50;9.02;;;3.25;;
59876;SDS011;74472;51.140;17.184;2023-12-20T10:38:16;6.32;;;2.42;;
59876;SDS011;74472;51.140;17.184;2023-12-20T10:40:42;4.47;;;1.85;;
59876;SDS011;74472;51.140;17.184;2023-12-20T10:43:08;6.50;;;3.80;;
59876;SDS011;74472;51.140;17.184;2023-12-20T10:45:33;6.68;;;3.28;;
59876;SDS011;74472;51.140;17.184;2023-12-20T10:47:59;5.38;;;2.60;;
59876;SDS011;74472;51.140;17.184;2023-12-20T10:50:26;9.52;;;4.50;;
59876;SDS011;74472;51.140;17.184;2023-12-20T10:52:56;10.20;;;4.57;;
59876;SDS011;74472;51.140;17.184;2023-12-20T10:55:23;8.55;;;4.10;;
59876;SDS011;74472;51.140;17.184;2023-12-20T10:57:52;6.10;;;2.08;;
59876;SDS011;74472;51.140;17.184;2023-12-20T11:00:20;5.85;;;1.95;;
59876;SDS011;74472;51.140;17.184;2023-12-20T11:02:48;5.80;;;2.00;;
59876;SDS011;74472;51.140;17.184;2023-12-20T11:08:02;9.02;;;3.47;;
59876;SDS011;74472;51.140;17.184;2023-12-20T11:10:41;9.70;;;4.40;;
59876;SDS011;74472;51.140;17.184;2023-12-20T11:13:20;13.52;;;6.55;;
59876;SDS011;74472;51.140;17.184;2023-12-20T11:16:07;10.73;;;4.47;;
59876;SDS011;74472;51.140;17.184;2023-12-20T11:18:33;10.07;;;3.67;;
59876;SDS011;74472;51.140;17.184;2023-12-20T11:21:01;11.57;;;3.00;;
59876;SDS011;74472;51.140;17.184;2023-12-20T11:23:29;7.28;;;2.92;;
59876;SDS011;74472;51.140;17.184;2023-12-20T11:25:56;7.68;;;3.20;;
59876;SDS011;74472;51.140;17.184;2023-12-20T11:28:25;5.85;;;3.45;;
59876;SDS011;74472;51.140;17.184;2023-12-20T11:30:54;15.43;;;6.55;;
59876;SDS011;74472;51.140;17.184;2023-12-20T11:33:21;12.75;;;4.00;;
59876;SDS011;74472;51.140;17.184;2023-12-20T11:35:48;5.85;;;2.40;;
59876;SDS011;74472;51.140;17.184;2023-12-20T11:38:14;6.95;;;2.80;;
59876;SDS011;74472;51.140;17.184;2023-12-20T11:40:41;4.07;;;2.10;;
59876;SDS011;74472;51.140;17.184;2023-12-20T11:43:07;8.25;;;2.08;;
59876;SDS011;74472;51.140;17.184;2023-12-20T11:45:32;6.43;;;1.80;;
59876;SDS011;74472;51.140;17.184;2023-12-20T11:47:59;4.50;;;1.80;;
59876;SDS011;74472;51.140;17.184;2023-12-20T11:50:27;5.38;;;2.00;;
59876;SDS011;74472;51.140;17.184;2023-12-20T11:52:53;5.40;;;1.75;;
59876;SDS011;74472;51.140;17.184;2023-12-20T11:55:20;3.28;;;1.30;;
59876;SDS011;74472;51.140;17.184;2023-12-20T11:57:45;4.30;;;2.80;;
59876;SDS011;74472;51.140;17.184;2023-12-20T12:00:11;5.40;;;2.60;;
59876;SDS011;74472;51.140;17.184;2023-12-20T12:02:38;3.80;;;1.80;;
59876;SDS011;74472;51.140;17.184;2023-12-20T12:05:04;4.25;;;1.75;;
59876;SDS011;74472;51.140;17.184;2023-12-20T12:07:30;7.43;;;1.92;;
59876;SDS011;74472;51.140;17.184;2023-12-20T12:09:56;3.20;;;1.67;;
59876;SDS011;74472;51.140;17.184;2023-12-20T12:12:21;4.93;;;1.92;;
59876;SDS011;74472;51.140;17.184;2023-12-20T12:14:48;4.43;;;1.92;;
59876;SDS011;74472;51.140;17.184;2023-12-20T12:17:14;6.28;;;3.50;;
59876;SDS011;74472;51.140;17.184;2023-12-20T12:19:40;8.80;;;3.42;;
59876;SDS011;74472;51.140;17.184;2023-12-20T12:22:09;2.90;;;1.60;;
59876;SDS011;74472;51.140;17.184;2023-12-20T12:24:39;3.25;;;1.90;;
59876;SDS011;74472;51.140;17.184;2023-12-20T12:27:08;4.88;;;1.60;;
59876;SDS011;74472;51.140;17.184;2023-12-20T12:29:34;3.75;;;1.55;;
59876;SDS011;74472;51.140;17.184;2023-12-20T12:32:00;2.05;;;1.27;;
59876;SDS011;74472;51.140;17.184;2023-12-20T12:34:29;6.25;;;1.35;;
59876;SDS011;74472;51.140;17.184;2023-12-20T12:36:54;4.15;;;1.23;;
59876;SDS011;74472;51.140;17.184;2023-12-20T12:39:20;6.47;;;2.25;;
59876;SDS011;74472;51.140;17.184;2023-12-20T12:41:46;2.70;;;1.70;;
59876;SDS011;74472;51.140;17.184;2023-12-20T12:44:12;4.07;;;1.83;;
59876;SDS011;74472;51.140;17.184;2023-12-20T12:46:37;3.13;;;1.85;;
59876;SDS011;74472;51.140;17.184;2023-12-20T12:49:03;5.10;;;1.90;;
59876;SDS011;74472;51.140;17.184;2023-12-20T12:51:29;5.20;;;2.45;;
59876;SDS011;74472;51.140;17.184;2023-12-20T12:53:54;4.28;;;1.50;;
59876;SDS011;74472;51.140;17.184;2023-12-20T12:56:19;7.97;;;3.22;;
59876;SDS011;74472;51.140;17.184;2023-12-20T12:58:44;5.65;;;1.50;;
59876;SDS011;74472;51.140;17.184;2023-12-20T13:01:10;45.95;;;19.75;;
59876;SDS011;74472;51.140;17.184;2023-12-20T13:03:35;7.35;;;3.78;;
59876;SDS011;74472;51.140;17.184;2023-12-20T13:06:01;8.10;;;6.88;;
59876;SDS011;74472;51.140;17.184;2023-12-20T13:08:26;3.50;;;2.40;;
59876;SDS011;74472;51.140;17.184;2023-12-20T13:10:52;9.90;;;2.80;;
59876;SDS011;74472;51.140;17.184;2023-12-20T13:13:17;10.40;;;4.30;;
59876;SDS011;74472;51.140;17.184;2023-12-20T13:15:42;7.05;;;2.92;;
59876;SDS011;74472;51.140;17.184;2023-12-20T13:20:40;5.10;;;1.63;;
59876;SDS011;74472;51.140;17.184;2023-12-20T13:23:06;3.60;;;2.25;;
59876;SDS011;74472;51.140;17.184;2023-12-20T13:25:31;4.50;;;1.75;;
59876;SDS011;74472;51.140;17.184;2023-12-20T13:27:56;11.05;;;2.28;;
59876;SDS011;74472;51.140;17.184;2023-12-20T13:30:21;5.30;;;1.98;;
59876;SDS011;74472;51.140;17.184;2023-12-20T13:32:47;5.25;;;2.00;;
59876;SDS011;74472;51.140;17.184;2023-12-20T13:35:12;7.57;;;1.55;;
59876;SDS011;74472;51.140;17.184;2023-12-20T13:37:38;4.57;;;2.15;;
59876;SDS011;74472;51.140;17.184;2023-12-20T13:40:03;6.65;;;2.20;;
59876;SDS011;74472;51.140;17.184;2023-12-20T13:42:29;4.88;;;1.58;;
59876;SDS011;74472;51.140;17.184;2023-12-20T13:44:54;5.10;;;1.83;;
59876;SDS011;74472;51.140;17.184;2023-12-20T13:47:20;8.50;;;2.28;;
59876;SDS011;74472;51.140;17.184;2023-12-20T13:49:46;4.70;;;1.48;;
59876;SDS011;74472;51.140;17.184;2023-12-20T13:52:11;5.50;;;2.63;;
59876;SDS011;74472;51.140;17.184;2023-12-20T13:54:37;3.88;;;1.42;;
59876;SDS011;74472;51.140;17.184;2023-12-20T13:57:03;6.40;;;2.10;;
59876;SDS011;74472;51.140;17.184;2023-12-20T13:59:28;3.55;;;1.95;;
59876;SDS011;74472;51.140;17.184;2023-12-20T14:01:53;10.80;;;3.53;;
59876;SDS011;74472;51.140;17.184;2023-12-20T14:04:19;4.40;;;2.00;;
59876;SDS011;74472;51.140;17.184;2023-12-20T14:06:46;9.25;;;3.50;;
59876;SDS011;74472;51.140;17.184;2023-12-20T14:09:12;16.52;;;7.35;;
59876;SDS011;74472;51.140;17.184;2023-12-20T14:11:37;9.65;;;4.93;;
59876;SDS011;74472;51.140;17.184;2023-12-20T14:14:06;8.32;;;3.60;;
59876;SDS011;74472;51.140;17.184;2023-12-20T14:16:34;7.28;;;3.85;;
59876;SDS011;74472;51.140;17.184;2023-12-20T14:19:00;9.35;;;5.13;;
59876;SDS011;74472;51.140;17.184;2023-12-20T14:21:25;12.80;;;6.78;;
59876;SDS011;74472;51.140;17.184;2023-12-20T14:23:50;13.77;;;6.55;;
59876;SDS011;74472;51.140;17.184;2023-12-20T14:26:17;44.47;;;19.52;;
59876;SDS011;74472;51.140;17.184;2023-12-20T14:28:42;47.10;;;18.85;;
59876;SDS011;74472;51.140;17.184;2023-12-20T14:31:07;28.90;;;11.85;;
59876;SDS011;74472;51.140;17.184;2023-12-20T14:33:33;41.50;;;16.38;;